createdAt,value
2022-08-19T00:01:38.991Z,10.60
2022-08-19T00:04:10.595Z,10.30
2022-08-19T00:06:40.798Z,10.80
2022-08-19T00:09:12.394Z,11.00
2022-08-19T00:11:40.862Z,10.60
2022-08-19T00:14:10.936Z,9.20
2022-08-19T00:16:40.562Z,10.20
2022-08-19T00:19:09.524Z,10.60
2022-08-19T00:21:41.008Z,10.60
2022-08-19T00:24:11.435Z,10.90
2022-08-19T00:26:40.000Z,10.10
2022-08-19T00:29:10.493Z,9.80
2022-08-19T00:31:39.284Z,10.10
2022-08-19T00:34:07.327Z,10.50
2022-08-19T00:36:35.585Z,10.40
2022-08-19T00:39:04.303Z,11.20
2022-08-19T00:41:32.389Z,11.00
2022-08-19T00:44:07.226Z,10.70
2022-08-19T00:46:37.892Z,9.50
2022-08-19T00:49:51.774Z,10.40
2022-08-19T00:52:26.316Z,10.80
2022-08-19T00:54:54.441Z,10.60
2022-08-19T00:57:28.092Z,10.20
2022-08-19T01:00:02.460Z,9.90
2022-08-19T01:02:33.397Z,10.00
2022-08-19T01:05:06.037Z,10.40
2022-08-19T01:07:38.341Z,10.10
2022-08-19T01:10:09.760Z,11.00
2022-08-19T01:12:39.102Z,10.40
2022-08-19T01:15:10.346Z,9.00
2022-08-19T01:17:40.944Z,10.00
2022-08-19T01:20:17.711Z,10.30
2022-08-19T01:22:55.628Z,9.90
2022-08-19T01:25:33.561Z,10.70
2022-08-19T01:28:10.712Z,9.90
2022-08-19T01:30:39.362Z,9.30
2022-08-19T01:33:13.575Z,10.20
2022-08-19T01:35:42.677Z,9.80
2022-08-19T01:38:32.719Z,10.30
2022-08-19T01:41:01.007Z,11.00
2022-08-19T01:43:30.552Z,10.00
2022-08-19T01:45:58.584Z,9.40
2022-08-19T01:48:26.625Z,10.50
2022-08-19T01:50:54.679Z,10.80
2022-08-19T01:53:22.721Z,11.00
2022-08-19T01:55:54.779Z,10.80
2022-08-19T01:58:30.495Z,11.50
2022-08-19T02:00:59.373Z,10.90
2022-08-19T02:03:27.568Z,11.00
2022-08-19T02:05:58.704Z,10.80
2022-08-19T02:08:28.779Z,10.80
2022-08-19T02:10:57.594Z,11.60
2022-08-19T02:13:28.780Z,10.10
2022-08-19T02:15:56.836Z,10.10
2022-08-19T02:18:28.090Z,10.90
2022-08-19T02:20:56.313Z,10.30
2022-08-19T02:23:24.384Z,10.40
2022-08-19T02:25:52.831Z,9.70
2022-08-19T02:28:20.920Z,9.70
2022-08-19T02:30:49.283Z,9.90
2022-08-19T02:33:18.279Z,10.80
2022-08-19T02:35:47.428Z,10.50
2022-08-19T02:38:28.579Z,9.70
2022-08-19T02:41:02.498Z,9.30
2022-08-19T02:43:34.406Z,10.50
2022-08-19T02:46:12.864Z,10.30
2022-08-19T02:48:41.051Z,10.50
2022-08-19T02:51:09.056Z,10.70
2022-08-19T02:53:38.368Z,10.40
2022-08-19T02:56:09.113Z,9.50
2022-08-19T02:58:37.045Z,8.80
2022-08-19T03:01:06.966Z,10.30
2022-08-19T03:03:35.096Z,10.50
2022-08-19T03:06:09.563Z,10.50
2022-08-19T03:08:38.149Z,10.40
2022-08-19T03:11:06.620Z,10.40
2022-08-19T03:13:34.684Z,9.80
2022-08-19T03:16:06.501Z,10.50
2022-08-19T03:18:34.866Z,10.20
2022-08-19T03:21:04.212Z,10.80
2022-08-19T03:23:32.567Z,11.20
2022-08-19T03:26:15.895Z,9.90
2022-08-19T03:28:51.615Z,9.80
2022-08-19T03:31:43.388Z,10.30
2022-08-19T03:34:19.418Z,10.60
2022-08-19T03:36:48.709Z,11.60
2022-08-19T03:39:18.026Z,11.00
2022-08-19T03:41:48.428Z,10.20
2022-08-19T03:44:23.232Z,11.20
2022-08-19T03:46:56.225Z,11.60
2022-08-19T03:49:28.397Z,11.40
2022-08-19T03:52:01.486Z,10.90
2022-08-19T03:54:30.269Z,10.50
2022-08-19T03:56:58.878Z,11.90
2022-08-19T03:59:33.674Z,11.40
2022-08-19T04:02:06.928Z,11.90
2022-08-19T04:04:35.025Z,10.80
2022-08-19T04:07:03.453Z,11.20
2022-08-19T04:09:31.885Z,11.40
2022-08-19T04:12:00.048Z,11.60
2022-08-19T04:14:34.842Z,11.80
2022-08-19T04:17:06.108Z,11.10
2022-08-19T04:19:36.625Z,10.90
2022-08-19T04:22:05.635Z,11.30
2022-08-19T04:24:36.111Z,11.30
2022-08-19T04:27:05.198Z,11.20
2022-08-19T04:29:34.299Z,11.50
2022-08-19T04:32:09.247Z,11.60
2022-08-19T04:35:02.765Z,12.90
2022-08-19T04:37:29.543Z,12.70
2022-08-19T04:40:25.143Z,12.10
2022-08-19T04:42:54.886Z,12.00
2022-08-19T04:45:23.511Z,10.90
2022-08-19T04:47:57.945Z,12.70
2022-08-19T04:50:27.969Z,12.10
2022-08-19T04:52:56.850Z,12.80
2022-08-19T04:55:28.553Z,11.70
2022-08-19T04:57:56.517Z,11.70
2022-08-19T05:00:24.530Z,12.70
2022-08-19T05:02:52.783Z,11.80
2022-08-19T05:05:22.047Z,12.30
2022-08-19T05:07:50.180Z,12.50
2022-08-19T05:10:18.304Z,12.60
2022-08-19T05:12:46.393Z,12.10
2022-08-19T05:15:14.526Z,12.20
2022-08-19T05:18:02.424Z,13.20
2022-08-19T05:20:49.032Z,13.50
2022-08-19T05:23:21.920Z,13.20
2022-08-19T05:25:53.861Z,13.40
2022-08-19T05:28:21.846Z,13.10
2022-08-19T05:30:51.943Z,12.40
2022-08-19T05:33:20.423Z,13.00
2022-08-19T05:35:50.590Z,12.70
2022-08-19T05:38:18.905Z,14.00
2022-08-19T05:40:48.191Z,13.10
2022-08-19T05:43:17.065Z,12.90
2022-08-19T05:45:45.299Z,14.10
2022-08-19T05:48:14.404Z,14.10
2022-08-19T05:50:43.409Z,13.50
2022-08-19T05:53:11.467Z,13.40
2022-08-19T05:55:39.954Z,13.80
2022-08-19T05:58:10.733Z,13.40
2022-08-19T06:00:38.891Z,13.00
2022-08-19T06:03:12.885Z,12.40
2022-08-19T06:05:51.581Z,13.00
2022-08-19T06:08:34.109Z,14.30
2022-08-19T06:11:36.468Z,13.40
2022-08-19T06:14:16.479Z,12.20
2022-08-19T06:16:46.405Z,12.80
2022-08-19T06:19:18.261Z,11.80
2022-08-19T06:21:49.185Z,12.40
2022-08-19T06:24:20.299Z,13.50
2022-08-19T06:26:49.747Z,14.90
2022-08-19T06:29:23.770Z,13.90
2022-08-19T06:31:55.529Z,14.20
2022-08-19T06:34:24.462Z,14.00
2022-08-19T06:36:53.881Z,13.60
2022-08-19T06:39:25.646Z,14.50
2022-08-19T06:41:58.921Z,14.40
2022-08-19T06:44:39.517Z,14.70
2022-08-19T06:47:23.438Z,14.20
2022-08-19T06:50:05.320Z,15.60
2022-08-19T06:52:36.839Z,14.70
2022-08-19T06:55:07.351Z,15.10
2022-08-19T06:57:35.579Z,14.90
2022-08-19T07:00:09.733Z,14.00
2022-08-19T07:02:48.052Z,13.70
2022-08-19T07:05:23.910Z,15.70
2022-08-19T07:07:52.010Z,13.80
2022-08-19T07:10:20.711Z,13.90
2022-08-19T07:12:50.199Z,14.60
2022-08-19T07:15:18.899Z,13.90
2022-08-19T07:17:52.390Z,14.10
2022-08-19T07:20:21.025Z,12.40
2022-08-19T07:22:49.305Z,14.70
2022-08-19T07:25:19.581Z,13.10
2022-08-19T07:27:54.369Z,13.10
2022-08-19T07:30:26.221Z,12.40
2022-08-19T07:32:54.832Z,12.40
2022-08-19T07:35:24.766Z,11.30
2022-08-19T07:37:54.175Z,12.00
2022-08-19T07:40:22.738Z,11.80
2022-08-19T07:42:50.740Z,11.40
2022-08-19T07:45:18.924Z,11.70
2022-08-19T07:47:51.073Z,10.60
2022-08-19T07:50:21.749Z,10.70
2022-08-19T07:52:51.103Z,10.60
2022-08-19T07:55:40.044Z,10.70
2022-08-19T07:58:09.261Z,9.90
2022-08-19T08:00:37.425Z,10.30
2022-08-19T08:03:05.469Z,9.10
2022-08-19T08:05:52.332Z,9.40
2022-08-19T08:08:44.253Z,8.90
2022-08-19T08:11:24.056Z,8.90
2022-08-19T08:14:00.834Z,8.10
2022-08-19T08:16:39.652Z,8.80
2022-08-19T08:19:20.492Z,8.60
2022-08-19T08:21:56.705Z,8.30
2022-08-19T08:24:28.727Z,8.10
2022-08-19T08:26:59.739Z,8.10
2022-08-19T08:29:34.827Z,7.70
2022-08-19T08:32:14.109Z,7.80
2022-08-19T08:34:43.933Z,7.50
2022-08-19T08:37:12.139Z,7.50
2022-08-19T08:39:40.414Z,7.20
2022-08-19T08:42:21.398Z,6.50
2022-08-19T08:45:17.737Z,6.40
2022-08-19T08:47:51.271Z,6.90
2022-08-19T08:50:37.605Z,6.40
2022-08-19T08:53:09.387Z,6.70
2022-08-19T08:55:37.849Z,6.10
2022-08-19T08:58:15.277Z,5.90
2022-08-19T09:00:48.688Z,5.50
2022-08-19T09:03:27.487Z,6.50
2022-08-19T09:06:11.936Z,6.10
2022-08-19T09:08:49.410Z,5.80
2022-08-19T09:11:49.028Z,6.40
2022-08-19T09:14:50.264Z,6.40
2022-08-19T09:17:29.276Z,6.60
2022-08-19T09:20:08.972Z,7.10
2022-08-19T09:22:46.149Z,6.40
2022-08-19T09:25:18.258Z,5.70
2022-08-19T09:28:02.490Z,5.90
2022-08-19T09:30:35.658Z,6.00
2022-08-19T09:33:03.830Z,5.70
2022-08-19T09:35:32.278Z,5.60
2022-08-19T09:38:18.433Z,5.40
2022-08-19T09:40:46.475Z,5.90
2022-08-19T09:43:14.440Z,5.90
2022-08-19T09:45:42.492Z,5.90
2022-08-19T09:48:11.793Z,5.40
2022-08-19T09:50:51.463Z,6.40
2022-08-19T09:53:25.603Z,6.60
2022-08-19T09:55:56.571Z,5.90
2022-08-19T09:58:28.686Z,6.20
2022-08-19T10:00:59.576Z,6.00
2022-08-19T10:03:30.194Z,6.10
2022-08-19T10:06:01.450Z,5.80
2022-08-19T10:08:35.488Z,6.00
2022-08-19T10:11:27.941Z,5.30
2022-08-19T10:13:53.746Z,5.10
2022-08-19T10:16:29.184Z,5.10
2022-08-19T10:19:00.394Z,5.10
2022-08-19T10:21:35.440Z,4.80
2022-08-19T10:24:07.074Z,4.90
2022-08-19T10:26:40.407Z,5.10
2022-08-19T10:29:09.248Z,4.90
2022-08-19T10:32:00.737Z,5.10
2022-08-19T10:34:28.357Z,5.10
2022-08-19T10:37:01.112Z,4.50
2022-08-19T10:39:32.788Z,4.60
2022-08-19T10:42:11.755Z,5.00
2022-08-19T10:44:40.592Z,5.10
2022-08-19T10:47:17.651Z,5.00
2022-08-19T10:50:13.430Z,4.50
2022-08-19T10:52:49.530Z,4.80
2022-08-19T10:55:41.421Z,4.40
2022-08-19T10:58:18.302Z,4.40
2022-08-19T11:00:56.816Z,4.60
2022-08-19T11:03:27.660Z,4.50
2022-08-19T11:06:07.949Z,4.60
2022-08-19T11:08:38.776Z,4.30
2022-08-19T11:11:08.633Z,4.30
2022-08-19T11:13:39.907Z,4.00
2022-08-19T11:16:15.117Z,4.50
2022-08-19T11:18:46.596Z,4.40
2022-08-19T11:21:18.488Z,4.40
2022-08-19T11:23:48.593Z,4.60
2022-08-19T11:26:16.907Z,4.60
2022-08-19T11:28:45.998Z,4.60
2022-08-19T11:31:17.182Z,4.60
2022-08-19T11:33:47.841Z,3.90
2022-08-19T11:36:17.429Z,3.80
2022-08-19T11:38:50.159Z,4.20
2022-08-19T11:41:20.273Z,3.70
2022-08-19T11:43:48.423Z,5.40
2022-08-19T11:46:17.755Z,4.20
2022-08-19T11:48:45.815Z,4.60
2022-08-19T11:51:18.396Z,4.10
2022-08-19T11:53:47.370Z,3.90
2022-08-19T11:56:15.552Z,4.00
2022-08-19T11:58:43.538Z,4.90
2022-08-19T12:01:17.189Z,4.50
2022-08-19T12:03:48.342Z,4.20
2022-08-19T12:06:20.628Z,4.90
2022-08-19T12:08:49.041Z,4.30
2022-08-19T12:11:17.245Z,4.10
2022-08-19T12:13:47.243Z,4.00
2022-08-19T12:16:19.363Z,4.20
2022-08-19T12:18:48.048Z,4.20
2022-08-19T12:21:18.257Z,3.90
2022-08-19T12:23:46.500Z,3.90
2022-08-19T12:26:14.502Z,4.50
2022-08-19T12:28:42.626Z,4.50
2022-08-19T12:31:14.924Z,4.00
2022-08-19T12:33:44.389Z,4.10
2022-08-19T12:36:14.475Z,4.40
2022-08-19T12:38:42.920Z,3.90
2022-08-19T12:41:13.810Z,4.10
2022-08-19T12:43:42.895Z,4.40
2022-08-19T12:46:12.073Z,4.20
2022-08-19T12:48:43.748Z,4.50
2022-08-19T12:51:14.531Z,4.00
2022-08-19T12:53:43.401Z,4.20
2022-08-19T12:56:15.314Z,4.30
2022-08-19T12:58:50.441Z,4.50
2022-08-19T13:01:22.789Z,4.50
2022-08-19T13:03:53.574Z,4.30
2022-08-19T13:06:22.246Z,4.40
2022-08-19T13:08:50.853Z,4.10
2022-08-19T13:11:21.992Z,4.40
2022-08-19T13:13:52.209Z,4.20
2022-08-19T13:16:21.528Z,4.30
2022-08-19T13:18:53.043Z,4.60
2022-08-19T13:21:24.385Z,4.10
2022-08-19T13:23:53.922Z,4.00
2022-08-19T13:26:22.941Z,4.60
2022-08-19T13:29:10.264Z,4.30
2022-08-19T13:32:00.813Z,4.20
2022-08-19T13:34:36.039Z,4.70
2022-08-19T13:37:05.407Z,4.40
2022-08-19T13:39:34.986Z,4.50
2022-08-19T13:42:05.357Z,4.20
2022-08-19T13:44:33.409Z,4.10
2022-08-19T13:47:07.944Z,4.50
2022-08-19T13:49:37.492Z,4.30
2022-08-19T13:52:06.675Z,4.00
2022-08-19T13:54:34.852Z,4.50
2022-08-19T13:57:02.952Z,4.60
2022-08-19T13:59:30.953Z,4.30
2022-08-19T14:02:00.595Z,4.70
2022-08-19T14:04:28.736Z,4.30
2022-08-19T14:06:56.760Z,5.30
2022-08-19T14:09:24.895Z,5.80
2022-08-19T14:11:52.921Z,5.30
2022-08-19T14:14:20.974Z,5.00
2022-08-19T14:16:50.263Z,4.70
2022-08-19T14:19:18.203Z,4.60
2022-08-19T14:21:46.123Z,4.10
2022-08-19T14:24:14.561Z,4.20
2022-08-19T14:26:42.623Z,4.30
2022-08-19T14:29:11.301Z,4.00
2022-08-19T14:31:41.683Z,4.30
2022-08-19T14:34:11.217Z,4.30
2022-08-19T14:36:39.475Z,4.40
2022-08-19T14:39:07.511Z,4.30
2022-08-19T14:41:35.670Z,4.60
2022-08-19T14:44:03.880Z,4.30
2022-08-19T14:46:32.279Z,4.70
2022-08-19T14:49:00.700Z,4.20
2022-08-19T14:51:29.197Z,4.10
2022-08-19T14:53:57.247Z,4.30
2022-08-19T14:56:30.178Z,4.10
2022-08-19T15:01:30.273Z,3.90
2022-08-19T15:03:58.401Z,3.90
2022-08-19T15:06:27.055Z,3.80
2022-08-19T15:08:55.425Z,4.30
2022-08-19T15:11:28.830Z,4.50
2022-08-19T15:13:57.788Z,4.10
2022-08-19T15:16:27.309Z,4.50
2022-08-19T15:19:00.060Z,4.00
2022-08-19T15:21:29.744Z,3.90
2022-08-19T15:23:59.749Z,3.80
2022-08-19T15:26:32.240Z,4.10
2022-08-19T15:29:02.113Z,4.20
2022-08-19T15:31:33.103Z,4.00
2022-08-19T15:34:01.176Z,4.00
2022-08-19T15:36:29.938Z,4.10
2022-08-19T15:38:59.159Z,3.60
2022-08-19T15:41:30.830Z,4.00
2022-08-19T15:44:04.628Z,3.80
2022-08-19T15:46:34.572Z,3.70
2022-08-19T15:49:03.132Z,3.80
2022-08-19T15:51:35.469Z,3.70
2022-08-19T15:54:06.175Z,4.30
2022-08-19T15:56:57.638Z,4.10
2022-08-19T15:59:47.806Z,3.90
2022-08-19T16:02:36.962Z,3.80
2022-08-19T16:05:27.758Z,4.10
2022-08-19T16:07:57.330Z,4.60
2022-08-19T16:10:28.281Z,4.60
2022-08-19T16:12:58.653Z,4.30
2022-08-19T16:15:30.526Z,4.70
2022-08-19T16:18:02.328Z,4.80
2022-08-19T16:20:30.961Z,4.40
2022-08-19T16:22:59.626Z,4.30
2022-08-19T16:25:30.138Z,4.50
2022-08-19T16:28:07.231Z,4.50
2022-08-19T16:30:38.940Z,4.90
2022-08-19T16:33:08.089Z,4.70
2022-08-19T16:35:36.891Z,4.80
2022-08-19T16:38:07.053Z,4.90
2022-08-19T16:40:35.667Z,4.60
2022-08-19T16:43:04.144Z,4.60
2022-08-19T16:45:32.164Z,5.20
2022-08-19T16:48:00.252Z,5.00
2022-08-19T16:50:47.819Z,5.60
2022-08-19T16:53:19.592Z,7.30
2022-08-19T16:55:53.527Z,8.10
2022-08-19T16:58:29.773Z,9.00
2022-08-19T17:01:03.727Z,8.40
2022-08-19T17:03:35.805Z,9.70
2022-08-19T17:06:18.413Z,7.50
2022-08-19T17:08:52.514Z,6.80
2022-08-19T17:11:22.497Z,7.40
2022-08-19T17:13:51.285Z,6.80
2022-08-19T17:16:25.086Z,6.00
2022-08-19T17:18:55.568Z,5.40
2022-08-19T17:21:28.132Z,5.00
2022-08-19T17:23:57.236Z,4.70
2022-08-19T17:26:26.519Z,5.00
2022-08-19T17:28:56.819Z,6.00
2022-08-19T17:31:27.295Z,6.60
2022-08-19T17:33:56.249Z,6.70
2022-08-19T17:36:27.300Z,7.10
2022-08-19T17:38:58.100Z,6.70
2022-08-19T17:41:28.023Z,6.40
2022-08-19T17:43:56.684Z,5.90
2022-08-19T17:46:24.813Z,5.80
2022-08-19T17:48:57.694Z,5.80
2022-08-19T17:51:40.964Z,5.50
2022-08-19T17:54:15.342Z,5.30
2022-08-19T17:56:44.814Z,5.40
2022-08-19T17:59:14.755Z,5.70
2022-08-19T18:01:53.873Z,6.00
2022-08-19T18:04:25.777Z,5.80
2022-08-19T18:06:55.724Z,5.60
2022-08-19T18:09:42.704Z,6.10
2022-08-19T18:12:14.103Z,6.20
2022-08-19T18:14:42.259Z,5.10
2022-08-19T18:17:15.299Z,5.90
2022-08-19T18:19:44.478Z,5.30
2022-08-19T18:22:40.820Z,5.70
2022-08-19T18:25:24.554Z,5.20
2022-08-19T18:27:59.917Z,5.20
2022-08-19T18:30:36.359Z,6.00
2022-08-19T18:33:14.306Z,5.60
2022-08-19T18:35:48.841Z,6.10
2022-08-19T18:38:37.336Z,6.10
2022-08-19T18:41:24.365Z,6.30
2022-08-19T18:44:10.955Z,5.70
2022-08-19T18:46:57.586Z,5.70
2022-08-19T18:49:29.849Z,5.80
2022-08-19T18:51:58.821Z,6.40
2022-08-19T18:54:30.379Z,6.00
2022-08-19T18:56:58.613Z,6.40
2022-08-19T18:59:28.884Z,6.90
2022-08-19T19:01:59.036Z,6.70
2022-08-19T19:04:31.508Z,7.10
2022-08-19T19:07:00.308Z,8.10
2022-08-19T19:09:28.513Z,8.00
2022-08-19T19:12:00.547Z,8.60
2022-08-19T19:14:49.101Z,9.30
2022-08-19T19:17:17.759Z,8.70
2022-08-19T19:19:45.906Z,9.00
2022-08-19T19:22:19.856Z,8.70
2022-08-19T19:24:48.369Z,8.70
2022-08-19T19:27:20.673Z,8.00
2022-08-19T19:29:52.269Z,8.30
2022-08-19T19:32:24.931Z,8.40
2022-08-19T19:34:53.357Z,8.00
2022-08-19T19:37:22.696Z,7.70
2022-08-19T19:39:50.855Z,7.60
2022-08-19T19:42:22.951Z,7.70
2022-08-19T19:44:55.425Z,8.30
2022-08-19T19:47:24.624Z,10.60
2022-08-19T19:50:14.918Z,8.80
2022-08-19T19:52:48.504Z,9.50
2022-08-19T19:55:20.758Z,9.40
2022-08-19T19:57:49.283Z,9.30
2022-08-19T20:00:19.180Z,8.60
2022-08-19T20:02:50.473Z,8.90
2022-08-19T20:05:21.604Z,9.00
2022-08-19T20:08:10.557Z,8.40
2022-08-19T20:10:41.021Z,8.10
2022-08-19T20:13:10.771Z,8.40
2022-08-19T20:15:43.487Z,8.70
2022-08-19T20:18:14.655Z,8.80
2022-08-19T20:20:45.189Z,8.20
2022-08-19T20:23:13.566Z,8.90
2022-08-19T20:25:41.985Z,9.00
2022-08-19T20:28:12.516Z,8.60
2022-08-19T20:30:47.975Z,8.20
2022-08-19T20:33:16.360Z,8.90
2022-08-19T20:35:45.684Z,8.60
2022-08-19T20:38:14.195Z,9.20
2022-08-19T20:40:42.267Z,9.30
2022-08-19T20:43:13.457Z,8.80
2022-08-19T20:45:41.544Z,8.50
2022-08-19T20:48:12.423Z,8.20
2022-08-19T20:50:41.067Z,8.80
2022-08-19T20:53:18.431Z,8.40
2022-08-19T20:55:51.932Z,8.60
2022-08-19T20:58:22.922Z,8.30
2022-08-19T21:00:54.234Z,8.60
2022-08-19T21:03:24.700Z,8.60
2022-08-19T21:05:53.692Z,8.70
2022-08-19T21:08:23.001Z,8.70
2022-08-19T21:10:52.633Z,8.80
2022-08-19T21:13:22.072Z,9.90
2022-08-19T21:15:51.535Z,8.70
2022-08-19T21:18:22.665Z,8.70
2022-08-19T21:20:51.386Z,8.90
2022-08-19T21:23:23.246Z,9.00
2022-08-19T21:25:56.109Z,9.50
2022-08-19T21:28:34.290Z,8.90
2022-08-19T21:31:06.818Z,8.40
2022-08-19T21:33:34.839Z,8.80
2022-08-19T21:36:04.363Z,9.20
2022-08-19T21:38:32.882Z,9.60
2022-08-19T21:41:05.884Z,8.70
2022-08-19T21:43:36.704Z,8.90
2022-08-19T21:46:06.221Z,9.00
2022-08-19T21:48:34.451Z,7.90
2022-08-19T21:51:02.571Z,8.50
2022-08-19T21:53:34.318Z,8.20
2022-08-19T21:56:07.012Z,8.40
2022-08-19T21:58:39.218Z,9.50
2022-08-19T22:01:08.291Z,8.50
2022-08-19T22:03:37.897Z,8.40
2022-08-19T22:06:07.383Z,8.60
2022-08-19T22:08:36.320Z,8.20
2022-08-19T22:11:04.745Z,7.70
2022-08-19T22:13:40.530Z,7.50
2022-08-19T22:16:10.217Z,8.10
2022-08-19T22:18:38.248Z,7.50
2022-08-19T22:21:11.203Z,8.20
2022-08-19T22:23:41.859Z,8.10
2022-08-19T22:26:11.616Z,8.10
2022-08-19T22:28:40.536Z,8.60
2022-08-19T22:31:10.231Z,9.10
2022-08-19T22:33:39.300Z,8.90
2022-08-19T22:36:08.300Z,8.30
2022-08-19T22:38:38.507Z,8.10
2022-08-19T22:41:08.036Z,8.90
2022-08-19T22:43:37.592Z,9.30
2022-08-19T22:46:15.108Z,8.70
2022-08-19T22:48:47.942Z,8.70
2022-08-19T22:51:42.566Z,9.00
2022-08-19T22:54:10.596Z,9.10
2022-08-19T22:56:38.598Z,8.80
2022-08-19T22:59:08.678Z,8.50
2022-08-19T23:01:37.261Z,8.00
2022-08-19T23:04:05.629Z,9.30
2022-08-19T23:06:36.349Z,8.60
2022-08-19T23:09:08.786Z,9.40
2022-08-19T23:11:41.766Z,8.50
2022-08-19T23:14:12.804Z,8.90
2022-08-19T23:16:42.129Z,8.50
2022-08-19T23:19:10.652Z,8.70
2022-08-19T23:21:40.315Z,8.30
2022-08-19T23:24:09.644Z,9.10
2022-08-19T23:26:38.887Z,9.30
2022-08-19T23:29:25.875Z,9.70
2022-08-19T23:31:53.935Z,9.30
2022-08-19T23:34:23.066Z,8.80
2022-08-19T23:36:51.097Z,9.40
2022-08-19T23:39:19.584Z,9.30
2022-08-19T23:41:47.708Z,8.40
2022-08-19T23:44:15.823Z,9.30
2022-08-19T23:46:54.991Z,9.40
2022-08-19T23:49:25.472Z,9.20
2022-08-19T23:51:55.887Z,8.50
2022-08-19T23:54:27.514Z,9.00
2022-08-19T23:57:13.181Z,8.80
2022-08-19T23:59:45.562Z,8.30
